aviador You're here:

RJOO Decoded Metar

OSAKA in JAPAN
Report Time2017-06-28 06:00:00
UTC Time2017-06-28 07:10:07
Flight Rules Old
WindVRB at 01 kt
Visibility9999 m
Phenomena:N/A
Clouds:Few 015 Hf
Broken 035 Hf
Expected CloudBase > 3,600 ft AGL from Temp-Dew spread
Ceiling3,500 ft
Temp28°C (ISA +13)
Dew Point19°C (58% RH)
Heat Index29.2°C
QNH1012 hPa
Density Alt1,880 ft
Elevation49 ft
Report Wrong Elevation
Raw Report
METAR RJOO 280600Z VRB01KT 9999 FEW015 BKN035 28/19 Q1012 RMK 2CU015
5CU035 A2989=

Extra information for RJOO:More info

Metar Taf Metar & Taf Last 4 Metars F.Rules Stats Wind Profile Meteogram Temp Stats Airport Information Weather charts Add Link Nearby VenuesMetar ALERT Operation Metar Decoded Social comments